Time;durP1;ratioP1;P1;durP2;ratioP2;P2;SDS_P1;SDS_P2;PMS_P1;PMS_P2;Temp;Humidity;BMP_temperature;BMP_pressure;BME280_temperature;BME280_humidity;BME280_pressure;Samples;Min_cycle;Max_cycle;Signal;HPM_P1;HPM_P2
2021/06/08 00:00:26;;;;;;;;;14.50;14.25;;;;;;;;3544760;39;113023;-75
2021/06/08 00:02:52;;;;;;;;;18.00;15.75;;;;;;;;3544270;39;114370;-75
2021/06/08 00:35:48;;;;;;;;;18.00;15.00;;;;;;;;3543932;39;111679;-75
2021/06/08 00:38:14;;;;;;;;;15.00;14.50;;;;;;;;3544464;39;113273;-75
2021/06/08 00:40:41;;;;;;;;;16.00;16.00;;;;;;;;3541996;39;114648;-76
2021/06/08 00:43:07;;;;;;;;;14.50;13.00;;;;;;;;3544340;39;112157;-75
2021/06/08 00:45:33;;;;;;;;;16.25;16.25;;;;;;;;3543986;39;114244;-74
2021/06/08 00:47:59;;;;;;;;;16.00;13.00;;;;;;;;3544019;39;113892;-76
2021/06/08 00:50:26;;;;;;;;;16.00;15.00;;;;;;;;3544557;39;111809;-75
2021/06/08 00:52:53;;;;;;;;;13.00;13.00;;;;;;;;3544474;39;113230;-76
2021/06/08 00:55:20;;;;;;;;;15.25;15.00;;;;;;;;3547006;39;113834;-75
2021/06/08 00:57:46;;;;;;;;;15.25;13.25;;;;;;;;3544548;39;113829;-75
2021/06/08 01:00:12;;;;;;;;;14.75;12.75;;;;;;;;3543932;39;113790;-76
2021/06/08 01:02:38;;;;;;;;;15.00;14.75;;;;;;;;3544304;39;113198;-76
2021/06/08 01:05:06;;;;;;;;;16.50;15.00;;;;;;;;3544205;39;113393;-75
2021/06/08 01:07:33;;;;;;;;;16.25;14.00;;;;;;;;3544013;39;114149;-76
2021/06/08 01:10:03;;;;;;;;;14.25;14.00;;;;;;;;3544598;39;112387;-76
2021/06/08 01:12:29;;;;;;;;;14.25;13.00;;;;;;;;3542759;39;113389;-76
2021/06/08 01:14:58;;;;;;;;;16.75;15.00;;;;;;;;3544186;39;113829;-76
2021/06/08 01:17:24;;;;;;;;;13.75;13.75;;;;;;;;3545284;39;113061;-76
2021/06/08 01:19:54;;;;;;;;;14.00;14.00;;;;;;;;3543912;39;113802;-75
2021/06/08 01:22:21;;;;;;;;;16.00;15.00;;;;;;;;3544549;39;112150;-75
2021/06/08 01:24:48;;;;;;;;;15.50;15.25;;;;;;;;3544385;39;113738;-76
2021/06/08 01:27:14;;;;;;;;;14.25;14.00;;;;;;;;3541676;39;114300;-76
2021/06/08 01:29:41;;;;;;;;;16.00;16.00;;;;;;;;3542453;39;111824;-76
2021/06/08 01:32:08;;;;;;;;;16.25;16.25;;;;;;;;3544621;39;112961;-77
2021/06/08 01:34:35;;;;;;;;;17.50;15.50;;;;;;;;3543771;39;114026;-77
2021/06/08 01:37:01;;;;;;;;;17.00;17.00;;;;;;;;3547388;39;111828;-77
2021/06/08 01:39:29;;;;;;;;;15.75;14.00;;;;;;;;3543880;39;113788;-76
2021/06/08 01:41:55;;;;;;;;;15.25;15.25;;;;;;;;3544419;39;112004;-76
2021/06/08 01:44:21;;;;;;;;;15.25;15.00;;;;;;;;3544290;39;114114;-77
2021/06/08 01:46:47;;;;;;;;;16.75;14.00;;;;;;;;3543508;39;114008;-75
2021/06/08 01:49:13;;;;;;;;;15.00;15.00;;;;;;;;3544449;39;111917;-75
2021/06/08 01:51:46;;;;;;;;;15.50;14.00;;;;;;;;3542227;39;113311;-76
2021/06/08 01:54:16;;;;;;;;;18.75;17.25;;;;;;;;3542193;39;113881;-75
2021/06/08 01:56:48;;;;;;;;;18.75;17.50;;;;;;;;3542402;39;111984;-75
2021/06/08 01:59:20;;;;;;;;;13.75;13.75;;;;;;;;3544863;39;114005;-76
2021/06/08 02:01:48;;;;;;;;;17.25;16.50;;;;;;;;3545467;39;112009;-76
2021/06/08 02:04:22;;;;;;;;;21.75;20.00;;;;;;;;3544362;39;113403;-76
2021/06/08 02:06:51;;;;;;;;;19.00;17.25;;;;;;;;3541577;39;113985;-76
2021/06/08 02:09:19;;;;;;;;;20.50;18.25;;;;;;;;3544201;39;111817;-75
2021/06/08 02:11:50;;;;;;;;;18.25;15.75;;;;;;;;3540562;39;112136;-75
2021/06/08 02:14:18;;;;;;;;;14.00;13.00;;;;;;;;3543654;39;114467;-74
2021/06/08 02:16:46;;;;;;;;;18.25;16.75;;;;;;;;3544093;39;111771;-74
2021/06/08 02:19:12;;;;;;;;;15.50;14.00;;;;;;;;3544011;39;113714;-74
2021/06/08 02:21:40;;;;;;;;;18.75;16.00;;;;;;;;3546145;39;115873;-76
2021/06/08 02:24:07;;;;;;;;;18.50;15.50;;;;;;;;3544153;39;113326;-76
2021/06/08 02:26:34;;;;;;;;;15.25;14.50;;;;;;;;3541611;39;113781;-75
2021/06/08 02:29:03;;;;;;;;;14.25;13.50;;;;;;;;3544419;39;111781;-75
2021/06/08 02:31:30;;;;;;;;;18.75;16.00;;;;;;;;3544241;39;113399;-75
2021/06/08 02:33:57;;;;;;;;;21.75;17.25;;;;;;;;3543686;39;113948;-75
2021/06/08 02:36:25;;;;;;;;;20.00;16.50;;;;;;;;3544107;39;111836;-75
2021/06/08 02:38:53;;;;;;;;;15.25;14.00;;;;;;;;3543812;39;113685;-76
2021/06/08 02:41:19;;;;;;;;;20.00;20.00;;;;;;;;3543644;39;114425;-75
2021/06/08 02:43:47;;;;;;;;;15.75;15.75;;;;;;;;3546521;39;111934;-76
2021/06/08 02:46:14;;;;;;;;;17.00;16.00;;;;;;;;3543700;39;113849;-76
2021/06/08 02:48:41;;;;;;;;;20.00;17.50;;;;;;;;3543849;39;111819;-75
2021/06/08 02:51:08;;;;;;;;;16.25;16.25;;;;;;;;3541915;39;113712;-76
2021/06/08 02:53:35;;;;;;;;;23.75;18.00;;;;;;;;3543592;39;113858;-75
2021/06/08 02:56:01;;;;;;;;;22.00;20.75;;;;;;;;3543837;39;112364;-75
2021/06/08 02:58:28;;;;;;;;;17.50;16.25;;;;;;;;3543973;39;113189;-76
2021/06/08 03:00:54;;;;;;;;;20.00;17.00;;;;;;;;3543551;39;113983;-76
2021/06/08 03:03:23;;;;;;;;;18.75;17.25;;;;;;;;3543896;39;112067;-75
2021/06/08 03:05:51;;;;;;;;;21.50;18.50;;;;;;;;3545967;39;113184;-76
2021/06/08 03:08:19;;;;;;;;;23.50;20.75;;;;;;;;3543923;39;111976;-75
2021/06/08 03:10:46;;;;;;;;;22.00;22.00;;;;;;;;3544070;39;114214;-75
2021/06/08 03:13:14;;;;;;;;;18.50;18.00;;;;;;;;3541401;39;114055;-76
2021/06/08 03:15:42;;;;;;;;;21.25;19.00;;;;;;;;3542065;39;111992;-77
2021/06/08 03:18:10;;;;;;;;;18.25;18.25;;;;;;;;3541988;39;113559;-76
2021/06/08 03:20:39;;;;;;;;;23.00;21.25;;;;;;;;3542961;39;114117;-76
2021/06/08 03:23:07;;;;;;;;;25.75;22.75;;;;;;;;3543606;39;111961;-77
2021/06/08 03:25:34;;;;;;;;;20.00;19.50;;;;;;;;3543453;39;113692;-77
2021/06/08 03:28:02;;;;;;;;;22.25;19.75;;;;;;;;3545837;39;112175;-75
2021/06/08 03:30:28;;;;;;;;;19.50;18.50;;;;;;;;3543208;39;113300;-76
2021/06/08 03:32:55;;;;;;;;;23.75;20.75;;;;;;;;3543106;39;114349;-76
2021/06/08 03:35:22;;;;;;;;;21.75;21.00;;;;;;;;3543410;39;112054;-77
2021/06/08 03:37:51;;;;;;;;;23.00;20.00;;;;;;;;3543568;39;113418;-76
2021/06/08 03:40:18;;;;;;;;;21.00;19.00;;;;;;;;3543153;39;114444;-77
2021/06/08 03:42:45;;;;;;;;;26.25;23.00;;;;;;;;3543390;39;111896;-76
2021/06/08 03:45:13;;;;;;;;;24.75;23.25;;;;;;;;3543450;39;113083;-75
2021/06/08 03:47:39;;;;;;;;;22.25;20.25;;;;;;;;3543575;39;114016;-77
2021/06/08 03:50:06;;;;;;;;;21.75;21.50;;;;;;;;3543599;39;113231;-76
2021/06/08 03:52:32;;;;;;;;;24.50;20.50;;;;;;;;3544326;39;113954;-76
2021/06/08 03:55:00;;;;;;;;;23.50;19.00;;;;;;;;3544823;39;112263;-76
2021/06/08 03:57:29;;;;;;;;;21.25;19.50;;;;;;;;3545255;39;112915;-77
2021/06/08 03:59:56;;;;;;;;;23.25;20.75;;;;;;;;3544392;39;113825;-75
2021/06/08 04:02:22;;;;;;;;;27.00;25.25;;;;;;;;3544740;39;112144;-75
2021/06/08 04:04:49;;;;;;;;;23.50;20.75;;;;;;;;3544401;39;113505;-75
2021/06/08 04:07:15;;;;;;;;;25.25;23.75;;;;;;;;3544093;39;113842;-74
2021/06/08 04:09:41;;;;;;;;;22.75;20.25;;;;;;;;3545295;39;112861;-75
2021/06/08 04:12:09;;;;;;;;;21.75;17.50;;;;;;;;3541843;39;113786;-74
2021/06/08 04:14:36;;;;;;;;;20.50;20.00;;;;;;;;3544560;39;112057;-74
2021/06/08 04:17:04;;;;;;;;;21.00;21.00;;;;;;;;3544573;39;113134;-75
2021/06/08 04:19:30;;;;;;;;;22.75;21.25;;;;;;;;3544032;39;114257;-75
2021/06/08 04:21:56;;;;;;;;;19.75;18.50;;;;;;;;3541469;39;112908;-73
2021/06/08 04:24:24;;;;;;;;;25.25;21.50;;;;;;;;3543514;39;113359;-72
2021/06/08 04:26:50;;;;;;;;;25.50;24.75;;;;;;;;3544204;39;114059;-73
2021/06/08 04:29:18;;;;;;;;;23.25;21.75;;;;;;;;3544571;39;111830;-72
2021/06/08 04:31:44;;;;;;;;;21.75;21.00;;;;;;;;3546840;39;113149;-73
2021/06/08 04:34:10;;;;;;;;;24.25;21.75;;;;;;;;3544902;39;111880;-75
2021/06/08 04:36:36;;;;;;;;;25.00;21.25;;;;;;;;3542531;39;113651;-74
2021/06/08 04:39:03;;;;;;;;;23.75;23.00;;;;;;;;3543952;39;114000;-76
2021/06/08 04:41:29;;;;;;;;;25.00;22.50;;;;;;;;3544256;39;111810;-79
2021/06/08 04:43:55;;;;;;;;;26.00;24.00;;;;;;;;3544309;39;113585;-79
2021/06/08 04:46:22;;;;;;;;;25.25;23.00;;;;;;;;3544214;39;114027;-77
2021/06/08 04:48:48;;;;;;;;;26.50;25.00;;;;;;;;3544332;39;111951;-71
2021/06/08 04:51:15;;;;;;;;;27.25;24.25;;;;;;;;3540267;39;112698;-71
2021/06/08 04:53:41;;;;;;;;;23.00;22.25;;;;;;;;3546496;39;113869;-70
2021/06/08 04:56:07;;;;;;;;;25.00;22.75;;;;;;;;3539567;39;112305;-69
2021/06/08 04:58:34;;;;;;;;;25.75;22.75;;;;;;;;3541173;39;113585;-70
2021/06/08 05:01:02;;;;;;;;;25.25;23.50;;;;;;;;3543286;39;111856;-71
2021/06/08 05:03:32;;;;;;;;;25.00;24.25;;;;;;;;3542888;39;112977;-71
2021/06/08 05:06:00;;;;;;;;;33.50;31.00;;;;;;;;3543429;39;113787;-69
2021/06/08 05:08:29;;;;;;;;;24.25;23.75;;;;;;;;3542278;39;112058;-70
2021/06/08 05:11:00;;;;;;;;;32.00;29.00;;;;;;;;3541745;39;114251;-69
2021/06/08 05:13:27;;;;;;;;;28.25;27.25;;;;;;;;3542567;39;113045;-70
2021/06/08 05:15:54;;;;;;;;;30.75;26.50;;;;;;;;3542963;39;112646;-75
2021/06/08 05:18:20;;;;;;;;;26.75;26.00;;;;;;;;3542553;39;113977;-74
2021/06/08 05:20:48;;;;;;;;;29.75;27.00;;;;;;;;3543066;39;112680;-71
2021/06/08 05:23:15;;;;;;;;;29.00;26.00;;;;;;;;3543087;39;113908;-74
2021/06/08 05:25:42;;;;;;;;;30.00;26.50;;;;;;;;3542486;39;113995;-72
2021/06/08 05:28:09;;;;;;;;;28.00;27.25;;;;;;;;3541611;39;112397;-74
2021/06/08 05:30:36;;;;;;;;;24.25;22.75;;;;;;;;3542825;39;114466;-73
2021/06/08 05:33:02;;;;;;;;;23.00;23.00;;;;;;;;3542667;39;114197;-75
2021/06/08 05:35:30;;;;;;;;;23.50;22.50;;;;;;;;3545584;39;112488;-72
2021/06/08 05:38:03;;;;;;;;;22.50;20.75;;;;;;;;3541828;39;113464;-74
2021/06/08 05:40:29;;;;;;;;;29.50;25.50;;;;;;;;3542971;39;111797;-74
2021/06/08 05:42:55;;;;;;;;;26.75;23.75;;;;;;;;3543941;39;114347;-74
2021/06/08 05:45:22;;;;;;;;;31.75;26.75;;;;;;;;3543474;39;113884;-71
2021/06/08 05:47:48;;;;;;;;;34.00;30.25;;;;;;;;3543889;39;111892;-71
2021/06/08 05:50:14;;;;;;;;;34.00;29.00;;;;;;;;3541426;39;114624;-74
2021/06/08 05:52:40;;;;;;;;;30.75;29.00;;;;;;;;3543428;39;113781;-74
2021/06/08 05:55:11;;;;;;;;;29.50;28.75;;;;;;;;3543676;39;111941;-72
2021/06/08 05:57:37;;;;;;;;;28.50;28.50;;;;;;;;3540919;39;113237;-72
2021/06/08 06:00:04;;;;;;;;;30.75;28.50;;;;;;;;3543709;39;112463;-73
2021/06/08 06:02:33;;;;;;;;;31.25;27.50;;;;;;;;3543657;39;113879;-73
2021/06/08 06:05:00;;;;;;;;;29.00;28.25;;;;;;;;3541927;39;114197;-71
2021/06/08 06:07:27;;;;;;;;;29.50;27.00;;;;;;;;3542066;39;111866;-72
2021/06/08 06:09:53;;;;;;;;;29.00;28.00;;;;;;;;3543744;39;113406;-74
2021/06/08 06:12:21;;;;;;;;;27.25;25.75;;;;;;;;3543499;39;113794;-73
2021/06/08 06:14:48;;;;;;;;;29.00;27.25;;;;;;;;3543607;39;111975;-72
2021/06/08 06:17:15;;;;;;;;;31.25;28.75;;;;;;;;3543975;39;113538;-72
2021/06/08 06:19:42;;;;;;;;;32.25;28.00;;;;;;;;3545733;39;113895;-72
2021/06/08 06:22:08;;;;;;;;;29.25;27.25;;;;;;;;3541898;39;113552;-70
2021/06/08 06:24:36;;;;;;;;;30.00;29.25;;;;;;;;3543256;39;113799;-75
2021/06/08 06:27:02;;;;;;;;;25.25;25.00;;;;;;;;3543645;39;111933;-72
2021/06/08 06:29:30;;;;;;;;;31.50;26.25;;;;;;;;3543483;39;113156;-72
2021/06/08 06:31:56;;;;;;;;;31.00;27.25;;;;;;;;3543129;39;113524;-73
2021/06/08 06:34:24;;;;;;;;;29.75;27.75;;;;;;;;3543724;39;112196;-74
2021/06/08 06:36:51;;;;;;;;;28.25;27.50;;;;;;;;3543543;39;114623;-72
2021/06/08 06:39:18;;;;;;;;;30.50;26.75;;;;;;;;3543153;39;113989;-72
2021/06/08 06:41:46;;;;;;;;;30.50;27.75;;;;;;;;3546122;39;112005;-70
2021/06/08 06:44:13;;;;;;;;;30.75;27.75;;;;;;;;3542974;39;113860;-72
2021/06/08 06:46:41;;;;;;;;;31.25;27.50;;;;;;;;3543194;39;111884;-72
2021/06/08 06:49:07;;;;;;;;;29.50;26.25;;;;;;;;3541664;39;114317;-73
2021/06/08 06:51:33;;;;;;;;;25.50;24.50;;;;;;;;3542894;39;114010;-71
2021/06/08 06:53:59;;;;;;;;;32.00;26.50;;;;;;;;3543513;39;111707;-73
2021/06/08 06:56:26;;;;;;;;;23.75;23.00;;;;;;;;3543359;39;113497;-69
2021/06/08 06:58:54;;;;;;;;;27.75;26.25;;;;;;;;3541572;39;112964;-73
2021/06/08 07:01:21;;;;;;;;;33.75;30.00;;;;;;;;3543560;39;112935;-71
2021/06/08 07:03:50;;;;;;;;;34.50;31.00;;;;;;;;3545742;39;114016;-69
2021/06/08 07:06:17;;;;;;;;;27.00;24.25;;;;;;;;3543204;39;111821;-70
2021/06/08 07:08:43;;;;;;;;;31.25;28.50;;;;;;;;3541938;39;113327;-72
2021/06/08 07:11:09;;;;;;;;;33.50;29.75;;;;;;;;3541110;39;113312;-69
2021/06/08 07:13:36;;;;;;;;;28.75;22.25;;;;;;;;3541445;39;111927;-68
2021/06/08 07:16:02;;;;;;;;;30.75;29.75;;;;;;;;3542351;39;113479;-68
2021/06/08 07:18:28;;;;;;;;;27.25;27.00;;;;;;;;3541817;39;114170;-68
2021/06/08 07:20:56;;;;;;;;;29.25;25.25;;;;;;;;3540445;39;111945;-67
2021/06/08 07:23:22;;;;;;;;;24.50;22.25;;;;;;;;3542295;39;113332;-67
2021/06/08 07:25:50;;;;;;;;;30.25;28.00;;;;;;;;3545145;39;112818;-69
2021/06/08 07:28:17;;;;;;;;;30.75;29.50;;;;;;;;3544837;39;113370;-70
2021/06/08 07:30:43;;;;;;;;;31.75;29.50;;;;;;;;3544277;39;113781;-68
2021/06/08 07:33:12;;;;;;;;;32.75;30.00;;;;;;;;3544664;39;111951;-69
2021/06/08 07:35:40;;;;;;;;;33.75;30.75;;;;;;;;3542796;39;113464;-72
2021/06/08 07:38:11;;;;;;;;;33.75;32.00;;;;;;;;3542024;39;114043;-70
2021/06/08 07:40:38;;;;;;;;;27.50;26.75;;;;;;;;3542636;39;111754;-71
2021/06/08 07:43:05;;;;;;;;;35.50;31.00;;;;;;;;3544536;39;113807;-71
2021/06/08 07:45:34;;;;;;;;;30.50;29.50;;;;;;;;3546811;39;113833;-70
2021/06/08 07:48:00;;;;;;;;;31.00;27.50;;;;;;;;3542267;39;113311;-69
2021/06/08 07:50:29;;;;;;;;;30.25;28.00;;;;;;;;3543237;39;114259;-69
2021/06/08 07:52:56;;;;;;;;;28.75;26.50;;;;;;;;3543036;39;111929;-69
2021/06/08 07:55:23;;;;;;;;;26.75;24.75;;;;;;;;3543380;39;113715;-69
2021/06/08 07:57:49;;;;;;;;;30.25;28.50;;;;;;;;3542262;39;114304;-69
2021/06/08 08:00:16;;;;;;;;;31.50;29.25;;;;;;;;3542188;39;112098;-71
2021/06/08 08:02:43;;;;;;;;;25.50;24.75;;;;;;;;3544336;39;113362;-71
2021/06/08 08:05:11;;;;;;;;;31.00;26.00;;;;;;;;3543680;39;113917;-79
2021/06/08 08:07:38;;;;;;;;;26.00;25.00;;;;;;;;3544725;39;113041;-73
2021/06/08 08:10:05;;;;;;;;;31.25;27.50;;;;;;;;3543081;39;113807;-73
2021/06/08 08:12:36;;;;;;;;;25.75;24.00;;;;;;;;3544140;39;112446;-72
2021/06/08 08:15:02;;;;;;;;;28.75;26.50;;;;;;;;3544268;39;113187;-74
2021/06/08 08:17:29;;;;;;;;;28.50;26.75;;;;;;;;3543828;39;113956;-73
2021/06/08 08:19:55;;;;;;;;;28.00;24.50;;;;;;;;3544269;39;111883;-74
2021/06/08 08:22:21;;;;;;;;;29.50;26.00;;;;;;;;3544469;39;113262;-74
2021/06/08 08:24:47;;;;;;;;;32.75;28.50;;;;;;;;3543356;39;114217;-73
2021/06/08 08:27:14;;;;;;;;;28.25;27.75;;;;;;;;3543845;39;112144;-73
2021/06/08 08:29:44;;;;;;;;;36.75;29.75;;;;;;;;3546048;39;113377;-74
2021/06/08 08:32:11;;;;;;;;;29.50;27.25;;;;;;;;3544315;39;111965;-74
2021/06/08 08:34:37;;;;;;;;;30.25;29.50;;;;;;;;3543888;39;113413;-74
2021/06/08 08:37:04;;;;;;;;;31.50;27.50;;;;;;;;3543207;39;113925;-74
2021/06/08 08:39:30;;;;;;;;;26.25;25.25;;;;;;;;3543891;39;111881;-74
2021/06/08 08:41:56;;;;;;;;;32.00;28.75;;;;;;;;3544052;39;113460;-75
2021/06/08 08:44:22;;;;;;;;;31.25;30.00;;;;;;;;3543344;39;113870;-75
2021/06/08 08:46:50;;;;;;;;;33.75;31.00;;;;;;;;3543188;39;111773;-74
2021/06/08 08:49:16;;;;;;;;;27.50;25.75;;;;;;;;3542150;39;113619;-74
2021/06/08 08:51:43;;;;;;;;;26.00;25.50;;;;;;;;3545164;39;112878;-74
2021/06/08 08:54:11;;;;;;;;;32.50;29.25;;;;;;;;3543464;39;113430;-75
2021/06/08 08:56:38;;;;;;;;;32.00;31.00;;;;;;;;3542390;39;113956;-74
2021/06/08 08:59:04;;;;;;;;;31.00;30.50;;;;;;;;3543491;39;111896;-75
2021/06/08 09:01:30;;;;;;;;;33.25;31.00;;;;;;;;3543746;39;113232;-75
2021/06/08 09:03:59;;;;;;;;;31.75;28.50;;;;;;;;3543730;39;114752;-74
2021/06/08 09:06:25;;;;;;;;;33.00;31.25;;;;;;;;3544176;39;111779;-73
2021/06/08 09:08:51;;;;;;;;;37.50;33.00;;;;;;;;3543935;39;113278;-74
2021/06/08 09:11:18;;;;;;;;;36.00;33.00;;;;;;;;3543045;39;115014;-76
2021/06/08 09:13:45;;;;;;;;;30.50;30.50;;;;;;;;3546624;39;111853;-76
2021/06/08 09:16:12;;;;;;;;;34.50;30.25;;;;;;;;3543517;39;113927;-75
2021/06/08 09:18:38;;;;;;;;;30.75;29.00;;;;;;;;3544033;39;112324;-75
2021/06/08 09:21:16;;;;;;;;;34.50;30.25;;;;;;;;3543748;39;113751;-75
2021/06/08 09:23:42;;;;;;;;;27.00;26.50;;;;;;;;3542571;39;114029;-72
2021/06/08 09:26:09;;;;;;;;;27.75;26.00;;;;;;;;3542004;39;111952;-72
2021/06/08 09:28:35;;;;;;;;;29.25;27.25;;;;;;;;3543111;39;113415;-74
2021/06/08 09:31:05;;;;;;;;;35.25;31.00;;;;;;;;3542914;39;113039;-73
2021/06/08 09:33:36;;;;;;;;;28.25;28.25;;;;;;;;3543009;39;112247;-74
2021/06/08 09:36:03;;;;;;;;;33.00;30.00;;;;;;;;3545313;39;113418;-72
2021/06/08 09:38:42;;;;;;;;;36.50;30.25;;;;;;;;3543105;39;112112;-72
2021/06/08 09:41:12;;;;;;;;;38.50;31.00;;;;;;;;3542682;39;113769;-74
2021/06/08 09:43:48;;;;;;;;;35.00;32.00;;;;;;;;3542471;39;113853;-74
2021/06/08 09:46:14;;;;;;;;;31.25;30.25;;;;;;;;3543222;39;112278;-73
2021/06/08 09:48:49;;;;;;;;;35.25;31.00;;;;;;;;3542356;39;113982;-74
2021/06/08 09:51:15;;;;;;;;;32.00;31.00;;;;;;;;3542585;39;113827;-73
2021/06/08 09:53:42;;;;;;;;;28.25;26.50;;;;;;;;3542891;39;112486;-74
2021/06/08 09:56:10;;;;;;;;;36.25;33.00;;;;;;;;3546555;39;113355;-74
2021/06/08 09:58:37;;;;;;;;;36.00;31.00;;;;;;;;3542950;39;111979;-74
2021/06/08 10:01:07;;;;;;;;;35.25;30.25;;;;;;;;3543172;39;113273;-74
2021/06/08 10:03:36;;;;;;;;;37.50;31.50;;;;;;;;3542461;39;113856;-74
2021/06/08 10:06:07;;;;;;;;;35.00;32.75;;;;;;;;3542888;39;112743;-73
2021/06/08 10:08:36;;;;;;;;;31.75;28.50;;;;;;;;3542911;39;113741;-75
2021/06/08 10:11:04;;;;;;;;;33.00;32.00;;;;;;;;3544402;39;114340;-85
2021/06/08 10:13:30;;;;;;;;;31.25;30.25;;;;;;;;3545334;39;111940;-79
2021/06/08 10:15:57;;;;;;;;;34.75;30.50;;;;;;;;3544914;39;113184;-76
2021/06/08 10:18:24;;;;;;;;;44.75;33.00;;;;;;;;3546924;39;113841;-80
2021/06/08 10:20:51;;;;;;;;;42.50;33.25;;;;;;;;3544687;39;113328;-81
2021/06/08 10:23:18;;;;;;;;;38.50;33.50;;;;;;;;3544476;39;113032;-84
2021/06/08 10:25:45;;;;;;;;;39.75;32.25;;;;;;;;3544471;39;112210;-79
2021/06/08 10:28:12;;;;;;;;;38.00;33.00;;;;;;;;3544984;39;113830;-78
2021/06/08 10:30:39;;;;;;;;;34.50;32.00;;;;;;;;3544042;39;114128;-76
2021/06/08 10:33:05;;;;;;;;;40.75;35.50;;;;;;;;3541182;39;112201;-76
2021/06/08 10:35:32;;;;;;;;;36.75;30.50;;;;;;;;3543055;39;113228;-75
2021/06/08 10:37:58;;;;;;;;;29.75;27.75;;;;;;;;3542452;39;114656;-75
2021/06/08 10:40:24;;;;;;;;;21.50;21.50;;;;;;;;3545417;39;111823;-78
2021/06/08 10:42:51;;;;;;;;;13.50;10.75;;;;;;;;3542233;39;113824;-76
2021/06/08 10:45:19;;;;;;;;;5.75;5.75;;;;;;;;3542771;39;112000;-77
2021/06/08 10:47:53;;;;;;;;;8.25;7.75;;;;;;;;3543084;39;114341;-79
2021/06/08 10:50:23;;;;;;;;;11.00;10.25;;;;;;;;3543169;39;113956;-77
2021/06/08 10:52:50;;;;;;;;;13.00;10.50;;;;;;;;3543714;39;111966;-78
2021/06/08 10:55:18;;;;;;;;;11.75;11.75;;;;;;;;3543601;39;113287;-78
2021/06/08 10:57:45;;;;;;;;;11.75;10.00;;;;;;;;3543080;39;114300;-78
2021/06/08 11:00:26;;;;;;;;;10.00;10.00;;;;;;;;3544113;39;111909;-79
2021/06/08 11:02:59;;;;;;;;;11.00;11.00;;;;;;;;3546962;39;113185;-79
2021/06/08 11:05:45;;;;;;;;;9.00;9.00;;;;;;;;3544948;39;112319;-79
2021/06/08 11:08:11;;;;;;;;;6.00;6.00;;;;;;;;3543352;39;113882;-79
2021/06/08 11:11:02;;;;;;;;;9.00;8.00;;;;;;;;3544573;39;113854;-79
2021/06/08 11:13:44;;;;;;;;;5.25;4.00;;;;;;;;3543262;39;113024;-79
2021/06/08 11:16:27;;;;;;;;;7.50;6.00;;;;;;;;3543419;39;113621;-78
2021/06/08 11:18:54;;;;;;;;;6.00;6.00;;;;;;;;3544679;39;113862;-79
2021/06/08 11:21:24;;;;;;;;;5.00;5.00;;;;;;;;3544707;39;111994;-79
2021/06/08 11:23:54;;;;;;;;;6.25;6.00;;;;;;;;3544914;39;113964;-78
2021/06/08 11:26:40;;;;;;;;;5.75;5.00;;;;;;;;3547036;39;113976;-79
2021/06/08 11:29:07;;;;;;;;;5.00;4.75;;;;;;;;3542884;39;113421;-78
2021/06/08 11:31:49;;;;;;;;;7.00;6.00;;;;;;;;3542569;39;113895;-75
2021/06/08 11:34:16;;;;;;;;;7.50;6.00;;;;;;;;3543647;39;112210;-83
2021/06/08 11:36:42;;;;;;;;;3.50;3.50;;;;;;;;3544884;39;113734;-78
2021/06/08 11:39:29;;;;;;;;;6.75;6.00;;;;;;;;3543883;39;113882;-79
2021/06/08 11:41:56;;;;;;;;;6.75;5.00;;;;;;;;3543944;39;112207;-78
2021/06/08 11:44:22;;;;;;;;;8.25;7.00;;;;;;;;3542959;39;112632;-79
2021/06/08 11:46:53;;;;;;;;;7.50;7.00;;;;;;;;3543878;39;113955;-79
2021/06/08 11:49:21;;;;;;;;;5.25;5.25;;;;;;;;3547114;39;112306;-78
2021/06/08 11:51:50;;;;;;;;;7.50;6.75;;;;;;;;3543846;39;113801;-79
2021/06/08 11:54:20;;;;;;;;;7.00;7.00;;;;;;;;3544728;39;111952;-81
2021/06/08 11:56:56;;;;;;;;;9.75;9.75;;;;;;;;3543211;39;113699;-79
2021/06/08 11:59:24;;;;;;;;;11.75;10.50;;;;;;;;3543160;39;114084;-80
2021/06/08 12:01:53;;;;;;;;;9.50;9.50;;;;;;;;3544509;39;111725;-79
2021/06/08 12:04:20;;;;;;;;;9.00;8.00;;;;;;;;3544832;39;113276;-79
2021/06/08 12:07:04;;;;;;;;;8.25;8.00;;;;;;;;3543904;39;114268;-79
2021/06/08 12:09:31;;;;;;;;;7.75;7.75;;;;;;;;3546761;39;111869;-82
2021/06/08 12:11:58;;;;;;;;;8.50;7.00;;;;;;;;3543520;39;113926;-81
2021/06/08 12:14:27;;;;;;;;;10.25;8.75;;;;;;;;3544413;39;112652;-80
2021/06/08 12:16:54;;;;;;;;;9.25;9.00;;;;;;;;3544790;39;113274;-80
2021/06/08 12:19:27;;;;;;;;;9.00;9.00;;;;;;;;3544040;39;114212;-80
2021/06/08 12:21:53;;;;;;;;;7.50;7.50;;;;;;;;3544524;39;112002;-79
2021/06/08 12:24:20;;;;;;;;;10.75;9.50;;;;;;;;3544374;39;113277;-79
2021/06/08 12:26:53;;;;;;;;;9.50;9.00;;;;;;;;3543752;39;114322;-81
2021/06/08 12:29:19;;;;;;;;;10.75;8.25;;;;;;;;3544312;39;112221;-83
2021/06/08 12:31:52;;;;;;;;;8.50;8.00;;;;;;;;3546708;39;113388;-82
2021/06/08 12:34:24;;;;;;;;;7.00;7.00;;;;;;;;3544703;39;112109;-82
2021/06/08 12:36:53;;;;;;;;;10.50;10.50;;;;;;;;3544863;39;113488;-83
2021/06/08 12:39:20;;;;;;;;;8.00;8.00;;;;;;;;3543727;39;113917;-83
2021/06/08 12:41:46;;;;;;;;;11.25;11.25;;;;;;;;3544464;39;112433;-84
2021/06/08 12:44:12;;;;;;;;;11.50;11.50;;;;;;;;3543091;39;113791;-85
2021/06/08 12:46:40;;;;;;;;;9.00;8.00;;;;;;;;3543963;39;114216;-84
2021/06/08 12:49:06;;;;;;;;;13.75;10.00;;;;;;;;3544376;39;111953;-84
2021/06/08 12:51:33;;;;;;;;;9.00;9.00;;;;;;;;3540235;39;113435;-83
2021/06/08 12:54:01;;;;;;;;;9.00;8.25;;;;;;;;3546364;39;113815;-85
2021/06/08 12:56:27;;;;;;;;;8.75;8.00;;;;;;;;3544006;39;113689;-83
2021/06/08 12:58:53;;;;;;;;;7.00;7.00;;;;;;;;3543701;39;114443;-83
2021/06/08 13:01:19;;;;;;;;;7.25;6.50;;;;;;;;3543928;39;112825;-85
2021/06/08 13:03:46;;;;;;;;;9.00;8.75;;;;;;;;3544363;39;113240;-88
2021/06/08 13:06:13;;;;;;;;;7.00;7.00;;;;;;;;3543730;39;113883;-88
2021/06/08 13:08:42;;;;;;;;;10.00;8.75;;;;;;;;3543952;39;112402;-85
2021/06/08 13:11:17;;;;;;;;;11.75;9.00;;;;;;;;3544085;39;113455;-86
2021/06/08 13:13:44;;;;;;;;;8.75;8.00;;;;;;;;3544006;39;114298;-84
2021/06/08 13:16:26;;;;;;;;;8.50;7.50;;;;;;;;3546678;39;112023;-86
2021/06/08 13:18:53;;;;;;;;;9.75;9.75;;;;;;;;3542813;39;114031;-86
2021/06/08 13:21:27;;;;;;;;;10.00;10.00;;;;;;;;3544590;39;112177;-83
2021/06/08 13:24:08;;;;;;;;;9.00;9.00;;;;;;;;3543792;39;113673;-83
2021/06/08 13:26:35;;;;;;;;;11.50;11.00;;;;;;;;3542027;39;114132;-85
2021/06/08 13:29:12;;;;;;;;;12.00;9.75;;;;;;;;3542276;39;111786;-83
2021/06/08 13:31:39;;;;;;;;;12.25;12.00;;;;;;;;3542687;39;113350;-81
2021/06/08 13:34:15;;;;;;;;;11.25;10.25;;;;;;;;3543905;39;114194;-85
2021/06/08 13:36:43;;;;;;;;;11.75;11.00;;;;;;;;3542920;39;111930;-84
2021/06/08 13:39:09;;;;;;;;;12.25;11.75;;;;;;;;3546595;39;113313;-82
2021/06/08 13:41:37;;;;;;;;;16.25;14.00;;;;;;;;3544092;39;112158;-77
2021/06/08 13:44:06;;;;;;;;;13.25;13.25;;;;;;;;3544123;39;113490;-76
2021/06/08 13:46:32;;;;;;;;;13.00;12.50;;;;;;;;3541756;39;113888;-75
2021/06/08 13:48:59;;;;;;;;;11.25;11.25;;;;;;;;3543545;39;112296;-74
2021/06/08 13:51:26;;;;;;;;;8.25;8.25;;;;;;;;3543870;39;113421;-76
2021/06/08 13:54:12;;;;;;;;;10.00;10.00;;;;;;;;3543315;39;113964;-76
2021/06/08 13:56:44;;;;;;;;;9.50;9.50;;;;;;;;3542229;39;111965;-74
2021/06/08 14:01:56;;;;;;;;;11.75;10.25;;;;;;;;3545744;39;111837;-75
2021/06/08 14:04:22;;;;;;;;;10.00;9.50;;;;;;;;3542666;39;113712;-74
2021/06/08 14:06:49;;;;;;;;;12.00;10.25;;;;;;;;3543608;39;113944;-76
2021/06/08 14:09:16;;;;;;;;;9.75;9.75;;;;;;;;3545191;39;112131;-83
2021/06/08 14:11:46;;;;;;;;;10.00;10.00;;;;;;;;3544798;39;114141;-75
2021/06/08 14:14:13;;;;;;;;;12.00;11.25;;;;;;;;3541725;39;114034;-74
2021/06/08 14:16:41;;;;;;;;;10.50;8.00;;;;;;;;3543770;39;112296;-73
2021/06/08 14:19:07;;;;;;;;;10.00;9.50;;;;;;;;3543635;39;113559;-74
2021/06/08 14:21:34;;;;;;;;;10.50;10.50;;;;;;;;3545914;39;113782;-76
2021/06/08 14:24:00;;;;;;;;;11.50;10.50;;;;;;;;3543748;39;113286;-75
2021/06/08 14:26:28;;;;;;;;;12.25;10.25;;;;;;;;3542839;39;113845;-75
2021/06/08 14:28:56;;;;;;;;;11.25;11.25;;;;;;;;3543409;39;112283;-75
2021/06/08 14:31:22;;;;;;;;;14.75;13.00;;;;;;;;3543015;39;113705;-75
2021/06/08 14:33:48;;;;;;;;;13.00;13.00;;;;;;;;3543154;39;114104;-75
2021/06/08 14:36:14;;;;;;;;;13.75;13.50;;;;;;;;3543277;39;112137;-75
2021/06/08 14:38:40;;;;;;;;;13.00;12.25;;;;;;;;3543700;39;113271;-72
2021/06/08 14:41:07;;;;;;;;;11.25;11.25;;;;;;;;3543327;39;114152;-72
2021/06/08 14:43:33;;;;;;;;;10.50;10.50;;;;;;;;3546634;39;111814;-74
2021/06/08 14:46:02;;;;;;;;;11.00;11.00;;;;;;;;3540323;39;115963;-74